Time;durP1;ratioP1;P1;durP2;ratioP2;P2;SDS_P1;SDS_P2;PMS_P1;PMS_P2;Temp;Humidity;BMP_temperature;BMP_pressure;BME280_temperature;BME280_humidity;BME280_pressure;Samples;Min_cycle;Max_cycle;Signal;HPM_P1;HPM_P2
2023/06/27 00:02:00;;;;;;;3.78;1.52;;;;;;;;;;5056832;28;20037;-63
2023/06/27 00:04:29;;;;;;;2.38;1.13;;;;;;;;;;5061199;28;20060;-64
2023/06/27 00:06:57;;;;;;;4.40;1.30;;;;;;;;;;5057156;28;20522;-64
2023/06/27 00:09:25;;;;;;;5.50;1.70;;;;;;;;;;5059733;28;20063;-64
2023/06/27 00:11:55;;;;;;;4.68;1.17;;;;;;;;;;5060598;28;20458;-63
2023/06/27 00:14:24;;;;;;;2.58;1.40;;;;;;;;;;5059105;28;20495;-63
2023/06/27 00:16:52;;;;;;;1.83;1.33;;;;;;;;;;5060442;28;20186;-63
2023/06/27 00:19:21;;;;;;;3.83;1.30;;;;;;;;;;5060373;28;20076;-63
2023/06/27 00:21:49;;;;;;;5.47;1.15;;;;;;;;;;5058998;28;20063;-64
2023/06/27 00:24:17;;;;;;;3.35;1.10;;;;;;;;;;5058147;28;20080;-63
2023/06/27 00:26:46;;;;;;;2.30;1.20;;;;;;;;;;5058274;28;21553;-64
2023/06/27 00:29:15;;;;;;;1.67;1.15;;;;;;;;;;5061327;28;20062;-63
2023/06/27 00:31:44;;;;;;;1.52;1.10;;;;;;;;;;5058745;28;20088;-63
2023/06/27 00:34:12;;;;;;;1.83;1.10;;;;;;;;;;5055608;28;20067;-65
2023/06/27 00:36:40;;;;;;;1.50;1.20;;;;;;;;;;5059947;28;20178;-64
2023/06/27 00:39:09;;;;;;;4.00;1.23;;;;;;;;;;5058567;28;20554;-63
2023/06/27 00:41:37;;;;;;;1.23;0.82;;;;;;;;;;5058967;28;20040;-64
2023/06/27 00:44:08;;;;;;;1.52;0.90;;;;;;;;;;5060711;28;20040;-64
2023/06/27 00:46:39;;;;;;;4.15;1.10;;;;;;;;;;5058805;28;20090;-64
2023/06/27 00:49:08;;;;;;;4.32;1.20;;;;;;;;;;5057372;28;20131;-64
2023/06/27 00:51:37;;;;;;;1.83;0.90;;;;;;;;;;5056265;28;20539;-64
2023/06/27 00:54:05;;;;;;;1.80;1.05;;;;;;;;;;5058906;28;20101;-63
2023/06/27 00:56:34;;;;;;;3.03;1.35;;;;;;;;;;5060242;28;20496;-62
2023/06/27 00:59:03;;;;;;;1.83;1.00;;;;;;;;;;5059338;28;20136;-64
2023/06/27 01:01:32;;;;;;;2.90;0.90;;;;;;;;;;5059097;28;20444;-64
2023/06/27 01:04:02;;;;;;;1.45;0.90;;;;;;;;;;5069476;22;20056;-65
2023/06/27 01:06:34;;;;;;;3.17;1.05;;;;;;;;;;5061886;28;20460;-61
2023/06/27 01:09:04;;;;;;;2.85;1.00;;;;;;;;;;5064116;28;20454;-59
2023/06/27 01:11:36;;;;;;;4.35;1.00;;;;;;;;;;5064668;28;21588;-64
2023/06/27 01:14:05;;;;;;;1.95;0.90;;;;;;;;;;5056774;28;20084;-71
2023/06/27 01:16:34;;;;;;;4.72;1.35;;;;;;;;;;5056399;28;20212;-65
2023/06/27 01:19:06;;;;;;;3.25;0.90;;;;;;;;;;5062618;28;20056;-67
2023/06/27 01:21:36;;;;;;;6.03;1.25;;;;;;;;;;5060496;28;20517;-66
2023/06/27 01:24:07;;;;;;;1.65;1.15;;;;;;;;;;5061230;28;20497;-66
2023/06/27 01:26:36;;;;;;;2.08;1.00;;;;;;;;;;5060241;28;20072;-68
2023/06/27 01:29:04;;;;;;;4.10;1.10;;;;;;;;;;5060853;28;20501;-66
2023/06/27 01:31:44;;;;;;;6.40;1.45;;;;;;;;;;5062763;28;20131;-66
2023/06/27 01:34:18;;;;;;;2.38;1.30;;;;;;;;;;5059867;28;20498;-66
2023/06/27 01:36:50;;;;;;;2.85;1.27;;;;;;;;;;5058705;28;20539;-64
2023/06/27 01:39:23;;;;;;;1.48;0.90;;;;;;;;;;5062102;28;20063;-71
2023/06/27 01:41:53;;;;;;;3.92;1.20;;;;;;;;;;5062358;28;20084;-62
2023/06/27 01:44:22;;;;;;;3.05;1.10;;;;;;;;;;5060143;28;20769;-69
2023/06/27 01:46:52;;;;;;;2.35;0.90;;;;;;;;;;5062633;28;20040;-63
2023/06/27 01:49:20;;;;;;;2.80;1.10;;;;;;;;;;5060567;28;20044;-68
2023/06/27 01:51:49;;;;;;;2.67;0.95;;;;;;;;;;5061994;28;20087;-62
2023/06/27 01:54:17;;;;;;;2.78;1.30;;;;;;;;;;5060927;28;20131;-62
2023/06/27 01:56:47;;;;;;;3.47;1.20;;;;;;;;;;5061309;28;20106;-62
2023/06/27 01:59:15;;;;;;;4.65;1.02;;;;;;;;;;5061249;28;20119;-69
2023/06/27 02:01:44;;;;;;;2.08;1.02;;;;;;;;;;5060145;28;20137;-69
2023/06/27 02:04:12;;;;;;;4.03;1.38;;;;;;;;;;5062115;28;20417;-63
2023/06/27 02:06:40;;;;;;;2.83;1.17;;;;;;;;;;5062940;28;20147;-65
2023/06/27 02:09:09;;;;;;;2.95;1.10;;;;;;;;;;5060431;28;20500;-62
2023/06/27 02:11:38;;;;;;;3.30;0.90;;;;;;;;;;5058939;28;20059;-62
2023/06/27 02:14:07;;;;;;;2.70;0.90;;;;;;;;;;5060333;28;20037;-74
2023/06/27 02:16:36;;;;;;;2.17;0.93;;;;;;;;;;5057462;28;20131;-65
2023/06/27 02:19:04;;;;;;;5.30;1.10;;;;;;;;;;5062410;28;20553;-64
2023/06/27 02:21:35;;;;;;;2.42;0.90;;;;;;;;;;5059566;28;20083;-73
2023/06/27 02:24:04;;;;;;;1.98;0.88;;;;;;;;;;5061491;28;20141;-62
2023/06/27 02:26:32;;;;;;;4.18;1.85;;;;;;;;;;5061756;28;20059;-72
2023/06/27 02:29:01;;;;;;;1.90;1.20;;;;;;;;;;5059540;28;20252;-64
2023/06/27 02:31:30;;;;;;;3.28;1.20;;;;;;;;;;5059869;28;20056;-64
2023/06/27 02:33:59;;;;;;;3.92;1.10;;;;;;;;;;5060454;28;20052;-61
2023/06/27 02:36:28;;;;;;;4.25;1.38;;;;;;;;;;5059539;28;20059;-62
2023/06/27 02:38:57;;;;;;;6.22;1.20;;;;;;;;;;5062372;28;20098;-72
2023/06/27 02:41:25;;;;;;;2.70;1.30;;;;;;;;;;5060055;28;20068;-66
2023/06/27 02:43:54;;;;;;;2.63;1.10;;;;;;;;;;5060897;28;20048;-67
2023/06/27 02:46:22;;;;;;;3.60;1.30;;;;;;;;;;5060197;28;20064;-63
2023/06/27 02:48:52;;;;;;;1.55;0.95;;;;;;;;;;5059928;28;20053;-64
2023/06/27 02:51:21;;;;;;;3.75;0.98;;;;;;;;;;5060141;28;20044;-63
2023/06/27 02:53:49;;;;;;;2.47;1.02;;;;;;;;;;5061149;28;20056;-71
2023/06/27 02:56:18;;;;;;;3.55;1.17;;;;;;;;;;5059920;28;20098;-70
2023/06/27 02:58:46;;;;;;;2.80;1.13;;;;;;;;;;5059541;28;20052;-61
2023/06/27 03:01:14;;;;;;;3.30;1.45;;;;;;;;;;5059742;28;20143;-66
2023/06/27 03:03:43;;;;;;;3.53;1.23;;;;;;;;;;5058177;28;20045;-63
2023/06/27 03:06:14;;;;;;;2.88;0.90;;;;;;;;;;5060814;28;20052;-64
2023/06/27 03:08:43;;;;;;;4.13;1.00;;;;;;;;;;5061153;28;20117;-61
2023/06/27 03:11:12;;;;;;;2.25;0.85;;;;;;;;;;5057137;28;20121;-61
2023/06/27 03:13:40;;;;;;;5.25;1.38;;;;;;;;;;5060840;28;20452;-65
2023/06/27 03:16:08;;;;;;;4.07;0.90;;;;;;;;;;5057091;28;20131;-67
2023/06/27 03:18:37;;;;;;;7.10;0.98;;;;;;;;;;5055411;28;21710;-67
2023/06/27 03:21:05;;;;;;;2.90;1.20;;;;;;;;;;5057738;28;20049;-64
2023/06/27 03:23:35;;;;;;;1.75;0.90;;;;;;;;;;5059315;28;21096;-64
2023/06/27 03:26:04;;;;;;;2.85;1.23;;;;;;;;;;5059067;28;20497;-68
2023/06/27 03:28:32;;;;;;;2.10;0.90;;;;;;;;;;5056315;28;20045;-64
2023/06/27 03:31:01;;;;;;;2.65;1.15;;;;;;;;;;5055283;28;20481;-65
2023/06/27 03:33:29;;;;;;;3.15;1.10;;;;;;;;;;5059027;28;20080;-64
2023/06/27 03:35:57;;;;;;;2.50;1.20;;;;;;;;;;5058558;28;20114;-65
2023/06/27 03:38:26;;;;;;;6.10;1.40;;;;;;;;;;5057275;28;20447;-66
2023/06/27 03:40:55;;;;;;;5.05;1.40;;;;;;;;;;5059783;28;20048;-65
2023/06/27 03:43:26;;;;;;;2.22;1.20;;;;;;;;;;5062528;28;20045;-73
2023/06/27 03:45:54;;;;;;;5.05;1.20;;;;;;;;;;5061316;28;20139;-71
2023/06/27 03:48:23;;;;;;;3.58;1.00;;;;;;;;;;5062802;28;20040;-64
2023/06/27 03:50:51;;;;;;;4.07;0.90;;;;;;;;;;5061125;28;20083;-71
2023/06/27 03:53:19;;;;;;;2.35;1.30;;;;;;;;;;5062693;28;20102;-65
2023/06/27 03:55:48;;;;;;;2.55;1.27;;;;;;;;;;5061240;28;20049;-65
2023/06/27 03:58:17;;;;;;;3.55;1.50;;;;;;;;;;5060773;28;20072;-64
2023/06/27 04:00:46;;;;;;;5.40;1.27;;;;;;;;;;5062502;28;20045;-65
2023/06/27 04:03:14;;;;;;;3.08;1.20;;;;;;;;;;5024350;28;1108339;-70
2023/06/27 04:05:43;;;;;;;3.05;1.00;;;;;;;;;;5063762;28;20094;-68
2023/06/27 04:08:13;;;;;;;1.63;1.00;;;;;;;;;;5060008;28;20078;-65
2023/06/27 04:10:42;;;;;;;1.80;0.95;;;;;;;;;;5064011;28;20287;-64
2023/06/27 04:13:10;;;;;;;7.57;1.25;;;;;;;;;;5061165;28;20044;-67
2023/06/27 04:15:40;;;;;;;3.67;1.10;;;;;;;;;;5061116;28;20052;-66
2023/06/27 04:18:09;;;;;;;2.83;1.10;;;;;;;;;;5065421;28;20131;-68
2023/06/27 04:20:38;;;;;;;3.22;1.00;;;;;;;;;;5065609;28;20044;-65
2023/06/27 04:23:07;;;;;;;3.35;1.30;;;;;;;;;;5060332;28;20737;-72
2023/06/27 04:25:35;;;;;;;2.47;0.95;;;;;;;;;;5065366;28;20052;-65
2023/06/27 04:28:04;;;;;;;1.00;0.80;;;;;;;;;;5064749;28;20489;-64
2023/06/27 04:30:32;;;;;;;2.63;0.82;;;;;;;;;;5067376;28;20417;-66
2023/06/27 04:33:03;;;;;;;2.90;0.82;;;;;;;;;;5064090;28;20045;-67
2023/06/27 04:35:31;;;;;;;2.85;1.02;;;;;;;;;;5064901;28;20052;-63
2023/06/27 04:38:00;;;;;;;2.55;1.10;;;;;;;;;;5064419;28;20447;-64
2023/06/27 04:40:28;;;;;;;2.03;0.90;;;;;;;;;;5063714;28;20044;-64
2023/06/27 04:42:56;;;;;;;3.88;1.20;;;;;;;;;;5062431;28;20052;-71
2023/06/27 04:45:25;;;;;;;3.53;1.05;;;;;;;;;;5058357;28;20496;-67
2023/06/27 04:47:53;;;;;;;2.60;1.20;;;;;;;;;;5055082;28;20497;-64
2023/06/27 04:50:23;;;;;;;3.47;1.17;;;;;;;;;;5056816;28;20136;-69
2023/06/27 04:52:52;;;;;;;3.63;1.42;;;;;;;;;;5059693;28;20098;-66
2023/06/27 04:55:20;;;;;;;2.83;0.77;;;;;;;;;;5061664;28;20086;-64
2023/06/27 04:57:48;;;;;;;2.17;1.10;;;;;;;;;;5061180;28;20052;-65
2023/06/27 05:00:17;;;;;;;1.45;1.02;;;;;;;;;;5061266;28;20451;-67
2023/06/27 05:02:46;;;;;;;2.08;1.23;;;;;;;;;;5058982;28;20068;-69
2023/06/27 05:05:17;;;;;;;3.78;1.10;;;;;;;;;;5061146;28;20037;-67
2023/06/27 05:07:47;;;;;;;4.95;1.42;;;;;;;;;;5060868;28;20110;-64
2023/06/27 05:10:16;;;;;;;3.58;0.95;;;;;;;;;;5061933;28;20060;-66
2023/06/27 05:12:44;;;;;;;2.55;1.00;;;;;;;;;;5062302;28;20114;-68
2023/06/27 05:15:12;;;;;;;2.38;0.90;;;;;;;;;;5061390;28;20084;-66
2023/06/27 05:17:43;;;;;;;1.80;1.10;;;;;;;;;;5062038;28;20102;-64
2023/06/27 05:20:12;;;;;;;2.83;1.10;;;;;;;;;;5059519;28;20520;-64
2023/06/27 05:22:40;;;;;;;2.80;1.10;;;;;;;;;;5061674;28;20056;-64
2023/06/27 05:25:10;;;;;;;3.22;1.20;;;;;;;;;;5060001;28;20072;-64
2023/06/27 05:27:39;;;;;;;3.30;1.20;;;;;;;;;;5062036;28;20083;-65
2023/06/27 05:30:08;;;;;;;3.40;1.20;;;;;;;;;;5062585;28;20563;-63
2023/06/27 05:32:36;;;;;;;2.42;0.98;;;;;;;;;;5061971;28;20064;-64
2023/06/27 05:35:05;;;;;;;1.45;1.00;;;;;;;;;;5060724;28;20068;-67
2023/06/27 05:37:33;;;;;;;2.85;1.70;;;;;;;;;;5061776;28;20556;-65
2023/06/27 05:40:02;;;;;;;5.80;1.30;;;;;;;;;;5058587;28;20072;-64
2023/06/27 05:42:32;;;;;;;3.55;1.00;;;;;;;;;;5059074;28;20098;-68
2023/06/27 05:45:01;;;;;;;2.15;1.20;;;;;;;;;;5058400;28;20123;-66
2023/06/27 05:47:29;;;;;;;2.35;1.00;;;;;;;;;;5061915;28;20489;-65
2023/06/27 05:49:57;;;;;;;3.92;1.23;;;;;;;;;;5062312;28;20044;-74
2023/06/27 05:52:26;;;;;;;1.65;1.10;;;;;;;;;;5061777;28;20123;-64
2023/06/27 05:54:55;;;;;;;4.40;1.17;;;;;;;;;;5060820;28;20163;-68
2023/06/27 05:57:23;;;;;;;3.03;0.95;;;;;;;;;;5062220;28;20105;-65
2023/06/27 05:59:53;;;;;;;1.80;0.93;;;;;;;;;;5060977;28;20505;-66
2023/06/27 06:02:21;;;;;;;3.35;1.10;;;;;;;;;;5061782;28;20079;-63
2023/06/27 06:04:50;;;;;;;2.25;0.98;;;;;;;;;;5059439;28;20056;-70
2023/06/27 06:07:18;;;;;;;2.30;0.98;;;;;;;;;;5061227;28;20049;-67
2023/06/27 06:09:47;;;;;;;1.80;1.13;;;;;;;;;;5062217;28;20056;-67
2023/06/27 06:12:15;;;;;;;4.07;1.48;;;;;;;;;;5061140;28;20064;-66
2023/06/27 06:14:44;;;;;;;2.95;1.20;;;;;;;;;;5061222;28;20079;-62
2023/06/27 06:17:13;;;;;;;1.90;0.98;;;;;;;;;;5061626;28;20173;-65
2023/06/27 06:19:42;;;;;;;3.25;1.23;;;;;;;;;;5063792;28;20106;-62
2023/06/27 06:22:10;;;;;;;3.97;1.00;;;;;;;;;;5061059;28;20040;-63
2023/06/27 06:24:38;;;;;;;2.92;1.27;;;;;;;;;;5061716;28;20452;-68
2023/06/27 06:27:07;;;;;;;1.60;1.13;;;;;;;;;;5061425;28;20161;-67
2023/06/27 06:29:36;;;;;;;4.85;1.75;;;;;;;;;;5057422;28;20123;-65
2023/06/27 06:32:04;;;;;;;1.98;1.17;;;;;;;;;;5062930;28;20562;-62
2023/06/27 06:34:34;;;;;;;2.83;1.00;;;;;;;;;;5061331;28;20047;-63
2023/06/27 06:37:03;;;;;;;2.05;1.05;;;;;;;;;;5060956;28;20127;-73
2023/06/27 06:39:31;;;;;;;4.75;1.33;;;;;;;;;;5059086;28;20063;-65
2023/06/27 06:42:00;;;;;;;2.38;1.20;;;;;;;;;;5061975;28;20391;-62
2023/06/27 06:44:28;;;;;;;1.70;1.00;;;;;;;;;;5060605;28;20044;-65
2023/06/27 06:46:59;;;;;;;3.67;1.40;;;;;;;;;;5058914;28;21174;-69
2023/06/27 06:49:30;;;;;;;1.80;0.88;;;;;;;;;;5061971;28;20045;-67
2023/06/27 06:52:00;;;;;;;2.63;1.13;;;;;;;;;;5058573;28;20097;-63
2023/06/27 06:54:29;;;;;;;2.25;1.13;;;;;;;;;;5059078;28;20052;-67
2023/06/27 06:56:57;;;;;;;4.95;1.08;;;;;;;;;;5063357;28;20102;-61
2023/06/27 06:59:25;;;;;;;4.03;1.02;;;;;;;;;;5057786;28;20048;-65
2023/06/27 07:01:54;;;;;;;6.40;1.35;;;;;;;;;;5058349;28;20064;-67
2023/06/27 07:04:22;;;;;;;6.03;1.08;;;;;;;;;;5061055;28;20048;-66
2023/06/27 07:06:51;;;;;;;1.63;0.93;;;;;;;;;;5059647;28;20539;-66
2023/06/27 07:09:20;;;;;;;3.28;1.10;;;;;;;;;;5059546;28;20044;-62
2023/06/27 07:11:50;;;;;;;3.72;1.10;;;;;;;;;;5058265;28;20106;-63
2023/06/27 07:14:18;;;;;;;4.88;1.13;;;;;;;;;;5060221;28;20101;-68
2023/06/27 07:16:47;;;;;;;2.38;0.90;;;;;;;;;;5057869;28;20090;-68
2023/06/27 07:19:15;;;;;;;2.05;1.10;;;;;;;;;;5062320;28;20045;-72
2023/06/27 07:21:44;;;;;;;2.75;0.90;;;;;;;;;;5060644;28;20611;-62
2023/06/27 07:24:12;;;;;;;5.25;1.30;;;;;;;;;;5060376;28;20037;-62
2023/06/27 07:26:42;;;;;;;1.50;0.90;;;;;;;;;;5059427;28;20062;-66
2023/06/27 07:29:11;;;;;;;4.93;1.20;;;;;;;;;;5059329;28;20936;-64
2023/06/27 07:31:39;;;;;;;1.77;1.10;;;;;;;;;;5062678;28;20496;-63
2023/06/27 07:34:08;;;;;;;3.38;1.17;;;;;;;;;;5058427;28;20564;-62
2023/06/27 07:36:36;;;;;;;1.83;1.30;;;;;;;;;;5060521;28;20102;-64
2023/06/27 07:39:05;;;;;;;3.08;1.33;;;;;;;;;;5059644;28;20076;-73
2023/06/27 07:41:33;;;;;;;1.77;0.93;;;;;;;;;;5062335;28;20493;-64
2023/06/27 07:44:03;;;;;;;2.65;1.23;;;;;;;;;;5061981;28;20071;-62
2023/06/27 07:46:32;;;;;;;2.28;1.05;;;;;;;;;;5060890;28;20464;-64
2023/06/27 07:49:00;;;;;;;1.88;0.90;;;;;;;;;;5057829;28;20101;-62
2023/06/27 07:51:31;;;;;;;1.83;1.00;;;;;;;;;;5058860;28;20057;-72
2023/06/27 07:54:00;;;;;;;3.45;1.23;;;;;;;;;;5061987;28;20048;-63
2023/06/27 07:56:28;;;;;;;2.55;1.10;;;;;;;;;;5062657;28;20057;-64
2023/06/27 07:58:57;;;;;;;3.05;0.98;;;;;;;;;;5054112;28;20057;-63
2023/06/27 08:01:27;;;;;;;3.40;1.05;;;;;;;;;;5059309;28;20539;-62
2023/06/27 08:03:56;;;;;;;2.00;0.98;;;;;;;;;;5060822;28;20311;-63
2023/06/27 08:06:24;;;;;;;2.95;1.00;;;;;;;;;;5061140;28;20044;-65
2023/06/27 08:08:53;;;;;;;1.30;1.00;;;;;;;;;;5060828;28;20053;-63
2023/06/27 08:11:22;;;;;;;1.77;0.88;;;;;;;;;;5060649;28;20040;-63
2023/06/27 08:13:50;;;;;;;1.08;0.80;;;;;;;;;;5057665;28;20064;-62
2023/06/27 08:16:18;;;;;;;5.25;1.30;;;;;;;;;;5060695;28;20118;-70
2023/06/27 08:18:48;;;;;;;2.15;0.98;;;;;;;;;;5059050;28;20041;-65
2023/06/27 08:21:17;;;;;;;2.35;0.80;;;;;;;;;;5056241;28;20045;-62
2023/06/27 08:23:45;;;;;;;1.48;0.70;;;;;;;;;;5054801;28;20501;-64
2023/06/27 08:26:15;;;;;;;1.10;0.90;;;;;;;;;;5059937;28;20113;-63
2023/06/27 08:28:43;;;;;;;2.67;1.13;;;;;;;;;;5061102;28;20105;-63
2023/06/27 08:31:12;;;;;;;2.35;1.00;;;;;;;;;;5061307;28;20496;-68
2023/06/27 08:33:41;;;;;;;3.58;1.20;;;;;;;;;;5061576;28;20045;-63
2023/06/27 08:36:11;;;;;;;1.55;0.82;;;;;;;;;;5061994;28;20041;-63
2023/06/27 08:38:39;;;;;;;1.42;1.00;;;;;;;;;;5062497;28;20071;-64
2023/06/27 08:41:07;;;;;;;3.60;1.00;;;;;;;;;;5061216;28;20049;-72
2023/06/27 08:43:36;;;;;;;2.72;1.33;;;;;;;;;;5061073;28;20126;-64
2023/06/27 08:46:06;;;;;;;2.55;1.00;;;;;;;;;;5057552;28;20080;-69
2023/06/27 08:48:35;;;;;;;2.03;1.10;;;;;;;;;;5058757;28;20059;-64
2023/06/27 08:51:04;;;;;;;3.25;1.42;;;;;;;;;;5060200;28;20497;-69
2023/06/27 08:53:36;;;;;;;1.73;0.82;;;;;;;;;;5057933;28;20150;-65
2023/06/27 08:56:06;;;;;;;2.35;1.20;;;;;;;;;;5060152;28;20139;-73
2023/06/27 08:58:37;;;;;;;1.25;0.77;;;;;;;;;;5056992;28;20052;-63
2023/06/27 09:01:06;;;;;;;2.25;1.20;;;;;;;;;;5058672;28;20048;-65
2023/06/27 09:03:35;;;;;;;4.68;1.27;;;;;;;;;;5058095;28;20082;-70
2023/06/27 09:06:05;;;;;;;1.38;0.93;;;;;;;;;;5054617;28;20064;-64
2023/06/27 09:08:34;;;;;;;4.55;1.17;;;;;;;;;;5060968;28;20787;-67
2023/06/27 09:11:08;;;;;;;2.03;0.98;;;;;;;;;;5060023;28;20072;-62
2023/06/27 09:13:38;;;;;;;1.70;0.90;;;;;;;;;;5059620;28;20059;-63
2023/06/27 09:16:07;;;;;;;2.80;1.25;;;;;;;;;;5057273;28;20067;-66
2023/06/27 09:18:36;;;;;;;2.55;1.10;;;;;;;;;;5057916;28;20475;-64
2023/06/27 09:21:04;;;;;;;3.10;1.00;;;;;;;;;;5056574;28;20105;-65
2023/06/27 09:23:34;;;;;;;3.30;1.00;;;;;;;;;;5059685;28;20052;-71
2023/06/27 09:26:09;;;;;;;1.98;1.05;;;;;;;;;;5059290;28;20459;-63
2023/06/27 09:28:48;;;;;;;2.90;0.80;;;;;;;;;;5060712;28;20067;-66
2023/06/27 09:31:18;;;;;;;2.85;1.00;;;;;;;;;;5058890;28;20514;-69
2023/06/27 09:33:48;;;;;;;1.55;0.93;;;;;;;;;;5052383;28;20048;-62
2023/06/27 09:36:32;;;;;;;4.72;1.10;;;;;;;;;;5060331;28;20088;-62
2023/06/27 09:39:05;;;;;;;3.05;1.30;;;;;;;;;;5058579;28;20386;-65
2023/06/27 09:41:44;;;;;;;2.63;1.35;;;;;;;;;;5057696;28;20059;-62
2023/06/27 09:44:14;;;;;;;2.55;1.08;;;;;;;;;;5055268;28;20040;-63
2023/06/27 09:46:43;;;;;;;1.98;0.93;;;;;;;;;;5055756;28;20056;-61
2023/06/27 09:49:12;;;;;;;1.25;1.00;;;;;;;;;;5058515;28;20716;-62
2023/06/27 09:51:40;;;;;;;2.58;1.25;;;;;;;;;;5056330;28;20041;-66
2023/06/27 09:54:12;;;;;;;3.90;1.40;;;;;;;;;;5060276;28;20107;-64
2023/06/27 09:56:44;;;;;;;4.05;1.40;;;;;;;;;;5059768;28;20052;-62
2023/06/27 09:59:12;;;;;;;1.60;1.00;;;;;;;;;;5052467;28;20040;-61
2023/06/27 10:02:01;;;;;;;1.65;0.93;;;;;;;;;;5055330;28;20569;-64
2023/06/27 10:04:29;;;;;;;1.92;1.05;;;;;;;;;;5058138;28;20052;-63
2023/06/27 10:07:08;;;;;;;1.95;1.02;;;;;;;;;;5059858;28;20071;-70
2023/06/27 10:09:39;;;;;;;1.85;1.20;;;;;;;;;;5060661;28;20048;-62
2023/06/27 10:12:08;;;;;;;2.00;1.20;;;;;;;;;;5060628;28;20052;-64
2023/06/27 10:14:36;;;;;;;1.10;0.90;;;;;;;;;;5059922;28;20135;-63
2023/06/27 10:17:05;;;;;;;1.75;1.08;;;;;;;;;;5058485;28;20554;-66
2023/06/27 10:19:37;;;;;;;3.30;1.00;;;;;;;;;;5059330;28;20048;-63
2023/06/27 10:22:10;;;;;;;3.03;1.10;;;;;;;;;;5058869;28;20521;-62
2023/06/27 10:24:41;;;;;;;4.47;1.13;;;;;;;;;;5059828;28;20048;-64
2023/06/27 10:27:12;;;;;;;1.98;1.02;;;;;;;;;;5056664;28;20076;-63
2023/06/27 10:29:41;;;;;;;3.38;1.13;;;;;;;;;;5059495;28;20057;-63
2023/06/27 10:32:10;;;;;;;1.40;1.10;;;;;;;;;;5056733;28;20559;-64
2023/06/27 10:34:43;;;;;;;4.32;1.30;;;;;;;;;;5055244;28;20084;-62
2023/06/27 10:37:12;;;;;;;2.15;1.00;;;;;;;;;;5053747;28;20132;-63
2023/06/27 10:39:42;;;;;;;1.95;1.15;;;;;;;;;;5057923;28;20724;-64
2023/06/27 10:42:27;;;;;;;1.77;1.13;;;;;;;;;;5059659;28;20305;-63
2023/06/27 10:45:03;;;;;;;6.10;1.00;;;;;;;;;;5060236;28;20045;-62
2023/06/27 10:47:34;;;;;;;2.40;1.30;;;;;;;;;;5059044;28;20060;-69
2023/06/27 10:50:10;;;;;;;3.30;1.27;;;;;;;;;;5059728;28;20508;-63
2023/06/27 10:52:39;;;;;;;5.38;1.15;;;;;;;;;;5059496;28;20067;-63
2023/06/27 10:55:22;;;;;;;3.00;1.48;;;;;;;;;;5059000;28;20503;-72
2023/06/27 10:57:56;;;;;;;1.17;0.90;;;;;;;;;;5057975;28;20132;-66
2023/06/27 11:00:30;;;;;;;3.92;1.17;;;;;;;;;;5058156;28;20048;-63
2023/06/27 11:03:03;;;;;;;3.28;1.42;;;;;;;;;;5058453;28;20391;-64
2023/06/27 11:05:40;;;;;;;1.65;1.05;;;;;;;;;;5055563;28;20051;-71
2023/06/27 11:08:14;;;;;;;3.55;1.00;;;;;;;;;;5056482;28;20059;-67
2023/06/27 11:10:53;;;;;;;2.28;1.13;;;;;;;;;;5058854;28;20055;-63
2023/06/27 11:13:23;;;;;;;5.03;1.30;;;;;;;;;;5059392;28;20087;-70
2023/06/27 11:15:52;;;;;;;5.50;1.20;;;;;;;;;;5071133;28;20055;-64
2023/06/27 11:18:21;;;;;;;3.83;1.30;;;;;;;;;;5078830;28;20048;-63
2023/06/27 11:20:50;;;;;;;4.18;1.00;;;;;;;;;;5078388;28;20501;-64
2023/06/27 11:23:20;;;;;;;3.38;1.38;;;;;;;;;;5078421;28;20068;-63
2023/06/27 11:25:48;;;;;;;2.08;1.30;;;;;;;;;;5077107;28;20412;-64
2023/06/27 11:28:20;;;;;;;2.92;1.42;;;;;;;;;;5078701;28;20043;-63
2023/06/27 11:30:48;;;;;;;2.83;1.33;;;;;;;;;;5081092;28;20049;-65
2023/06/27 11:33:19;;;;;;;1.90;1.38;;;;;;;;;;5073850;28;20049;-64
2023/06/27 11:35:48;;;;;;;1.33;1.02;;;;;;;;;;5077722;28;20052;-63
2023/06/27 11:38:17;;;;;;;2.63;1.20;;;;;;;;;;5076135;28;20052;-62
2023/06/27 11:40:49;;;;;;;2.90;1.58;;;;;;;;;;5076580;28;20570;-63
2023/06/27 11:43:19;;;;;;;2.40;1.10;;;;;;;;;;5076006;28;20117;-65
2023/06/27 11:45:47;;;;;;;4.78;1.30;;;;;;;;;;5070557;28;20040;-68
2023/06/27 11:48:16;;;;;;;3.20;1.30;;;;;;;;;;5072266;28;20075;-65
2023/06/27 11:50:57;;;;;;;2.45;1.42;;;;;;;;;;5077225;28;20048;-65
2023/06/27 11:53:26;;;;;;;1.48;1.10;;;;;;;;;;5080135;28;20052;-62
2023/06/27 11:55:55;;;;;;;3.63;1.30;;;;;;;;;;5077311;28;20133;-62
2023/06/27 11:58:32;;;;;;;3.72;1.40;;;;;;;;;;5079896;28;20476;-65
2023/06/27 12:01:01;;;;;;;2.22;1.40;;;;;;;;;;5082313;28;20052;-63
2023/06/27 12:03:32;;;;;;;3.38;1.40;;;;;;;;;;5083202;28;20048;-62
2023/06/27 12:06:01;;;;;;;4.28;1.40;;;;;;;;;;5084164;28;20060;-66
2023/06/27 12:08:30;;;;;;;3.83;1.00;;;;;;;;;;5082689;28;20105;-62
2023/06/27 12:11:01;;;;;;;3.35;1.30;;;;;;;;;;5077430;28;20450;-64
2023/06/27 12:13:35;;;;;;;2.33;1.15;;;;;;;;;;5082483;28;20040;-62
2023/06/27 12:16:04;;;;;;;6.43;1.50;;;;;;;;;;5077907;28;20056;-67
2023/06/27 12:18:33;;;;;;;3.55;0.93;;;;;;;;;;5081427;28;20044;-65
2023/06/27 12:21:01;;;;;;;1.27;0.93;;;;;;;;;;5080544;28;20053;-62
2023/06/27 12:23:30;;;;;;;2.97;1.10;;;;;;;;;;5081571;28;20079;-63
2023/06/27 12:25:59;;;;;;;3.42;1.23;;;;;;;;;;5081437;28;20492;-67
2023/06/27 12:28:27;;;;;;;2.90;1.02;;;;;;;;;;5081930;28;20144;-61
2023/06/27 12:30:57;;;;;;;3.05;1.23;;;;;;;;;;5082515;28;20047;-63
2023/06/27 12:33:26;;;;;;;3.35;1.60;;;;;;;;;;5082184;28;20048;-60
2023/06/27 12:35:54;;;;;;;1.70;1.10;;;;;;;;;;5078279;28;20056;-64
2023/06/27 12:38:23;;;;;;;7.53;1.35;;;;;;;;;;5081358;28;20040;-64
2023/06/27 12:40:51;;;;;;;2.75;1.20;;;;;;;;;;5081287;28;20113;-69
2023/06/27 12:43:20;;;;;;;3.60;1.45;;;;;;;;;;5081889;28;20051;-71
2023/06/27 12:46:00;;;;;;;2.47;1.35;;;;;;;;;;5083290;28;20481;-62
2023/06/27 12:48:29;;;;;;;3.75;1.30;;;;;;;;;;5081308;28;20105;-64
2023/06/27 12:50:57;;;;;;;4.32;1.05;;;;;;;;;;5081078;28;20235;-63
2023/06/27 12:53:26;;;;;;;6.25;1.40;;;;;;;;;;5080191;28;20044;-66
2023/06/27 12:55:54;;;;;;;2.92;1.30;;;;;;;;;;5077934;28;20090;-63
2023/06/27 12:58:22;;;;;;;2.80;1.30;;;;;;;;;;5081657;28;20044;-65
2023/06/27 13:00:51;;;;;;;2.17;1.13;;;;;;;;;;5081775;28;20062;-63
2023/06/27 13:03:21;;;;;;;3.28;1.25;;;;;;;;;;5081876;28;20062;-63
2023/06/27 13:05:49;;;;;;;4.13;1.33;;;;;;;;;;5078426;28;20079;-62
2023/06/27 13:08:18;;;;;;;5.43;1.35;;;;;;;;;;5079785;28;20048;-67
2023/06/27 13:10:48;;;;;;;1.60;1.30;;;;;;;;;;5079018;28;20043;-63
2023/06/27 13:13:17;;;;;;;1.88;1.40;;;;;;;;;;5078005;28;20536;-64
2023/06/27 13:15:45;;;;;;;3.00;1.48;;;;;;;;;;5081138;28;20051;-64
2023/06/27 13:18:35;;;;;;;2.35;1.20;;;;;;;;;;5078992;28;20790;-62
2023/06/27 13:21:03;;;;;;;4.25;1.25;;;;;;;;;;5076241;28;20078;-63
2023/06/27 13:23:32;;;;;;;2.65;1.17;;;;;;;;;;5081580;28;20141;-64
2023/06/27 13:26:00;;;;;;;2.47;1.48;;;;;;;;;;5079019;28;20048;-63
2023/06/27 13:28:29;;;;;;;4.68;1.00;;;;;;;;;;5082226;28;20883;-64
2023/06/27 13:30:57;;;;;;;3.03;1.40;;;;;;;;;;5077181;28;20052;-70
2023/06/27 13:33:26;;;;;;;3.88;1.35;;;;;;;;;;5081170;28;20044;-63
2023/06/27 13:35:56;;;;;;;3.53;1.35;;;;;;;;;;5080112;28;20059;-66
2023/06/27 13:38:24;;;;;;;3.70;1.65;;;;;;;;;;5080252;28;20413;-64
2023/06/27 13:40:52;;;;;;;3.20;1.42;;;;;;;;;;5081088;28;20489;-64
2023/06/27 13:43:21;;;;;;;2.88;1.25;;;;;;;;;;5082285;28;20085;-62
2023/06/27 13:45:53;;;;;;;2.75;1.50;;;;;;;;;;5080600;28;20040;-62
2023/06/27 13:48:22;;;;;;;3.65;1.27;;;;;;;;;;5078730;28;20056;-70
2023/06/27 13:50:53;;;;;;;1.88;1.35;;;;;;;;;;5078170;28;20386;-62
2023/06/27 13:53:23;;;;;;;3.17;1.35;;;;;;;;;;5080128;28;20071;-63
2023/06/27 13:55:52;;;;;;;2.90;1.30;;;;;;;;;;5081001;28;20056;-66
2023/06/27 13:58:22;;;;;;;2.30;1.10;;;;;;;;;;5080832;28;20048;-62
2023/06/27 14:00:50;;;;;;;6.18;1.30;;;;;;;;;;5080672;28;20117;-63
2023/06/27 14:03:19;;;;;;;1.92;1.08;;;;;;;;;;5081458;28;20052;-64
2023/06/27 14:05:48;;;;;;;4.13;1.48;;;;;;;;;;5079791;28;20055;-62
2023/06/27 14:08:17;;;;;;;3.08;1.48;;;;;;;;;;5081962;28;20036;-72
2023/06/27 14:10:47;;;;;;;4.38;1.33;;;;;;;;;;5080359;28;20075;-63
2023/06/27 14:13:15;;;;;;;1.35;1.10;;;;;;;;;;5080403;28;20044;-66
2023/06/27 14:15:44;;;;;;;3.85;0.88;;;;;;;;;;5078619;28;20172;-67
2023/06/27 14:18:13;;;;;;;4.03;1.35;;;;;;;;;;5078701;28;20565;-66
2023/06/27 14:20:42;;;;;;;2.75;1.13;;;;;;;;;;5080616;28;20047;-63
2023/06/27 14:23:11;;;;;;;4.18;1.55;;;;;;;;;;5074069;28;20565;-65
2023/06/27 14:25:39;;;;;;;2.28;1.10;;;;;;;;;;5077207;28;20477;-68
2023/06/27 14:28:09;;;;;;;1.98;1.25;;;;;;;;;;5077476;28;20048;-66
2023/06/27 14:30:38;;;;;;;1.63;1.02;;;;;;;;;;5075073;28;20454;-69
2023/06/27 14:33:08;;;;;;;3.72;1.15;;;;;;;;;;5079852;28;20097;-63
2023/06/27 14:35:37;;;;;;;1.55;1.17;;;;;;;;;;5077467;28;20526;-62
2023/06/27 14:38:06;;;;;;;5.63;1.42;;;;;;;;;;5079239;28;20051;-64
2023/06/27 14:40:34;;;;;;;3.22;1.20;;;;;;;;;;5075674;28;20048;-63
2023/06/27 14:43:03;;;;;;;2.05;1.05;;;;;;;;;;5076334;28;20036;-70
2023/06/27 14:45:33;;;;;;;3.30;1.23;;;;;;;;;;5073797;28;20052;-64
2023/06/27 14:48:01;;;;;;;3.08;1.27;;;;;;;;;;5080023;28;20051;-62
2023/06/27 14:50:30;;;;;;;2.25;1.20;;;;;;;;;;5080044;28;20139;-63
2023/06/27 14:52:58;;;;;;;3.47;1.55;;;;;;;;;;5079913;28;20488;-65
2023/06/27 14:55:27;;;;;;;5.65;1.65;;;;;;;;;;5080175;28;20106;-63
2023/06/27 14:57:56;;;;;;;2.03;1.30;;;;;;;;;;5079444;28;20056;-71